createdAt,value
2023-04-28T00:01:11.095Z,6.80
2023-04-28T00:03:37.590Z,6.38
2023-04-28T00:06:04.280Z,5.50
2023-04-28T00:08:30.629Z,7.13
2023-04-28T00:10:56.967Z,7.38
2023-04-28T00:13:23.637Z,7.18
2023-04-28T00:15:52.709Z,6.13
2023-04-28T00:18:19.983Z,7.10
2023-04-28T00:20:46.676Z,4.60
2023-04-28T00:23:13.042Z,5.68
2023-04-28T00:25:39.422Z,5.63
2023-04-28T00:28:05.760Z,4.82
2023-04-28T00:30:32.109Z,5.57
2023-04-28T00:32:58.560Z,5.15
2023-04-28T00:35:24.972Z,6.78
2023-04-28T00:37:51.259Z,6.07
2023-04-28T00:40:17.604Z,4.82
2023-04-28T00:42:43.960Z,5.55
2023-04-28T00:45:10.667Z,5.65
2023-04-28T00:47:38.211Z,7.70
2023-04-28T00:50:06.316Z,5.38
2023-04-28T00:52:32.632Z,4.95
2023-04-28T00:54:59.494Z,5.90
2023-04-28T00:57:25.996Z,5.53
2023-04-28T00:59:52.347Z,7.20
2023-04-28T01:02:19.151Z,5.40
2023-04-28T01:04:46.210Z,8.00
2023-04-28T01:07:12.914Z,5.57
2023-04-28T01:09:39.238Z,3.92
2023-04-28T01:12:05.877Z,6.90
2023-04-28T01:14:33.606Z,7.60
2023-04-28T01:17:00.287Z,6.18
2023-04-28T01:19:27.799Z,5.45
2023-04-28T01:21:54.183Z,4.28
2023-04-28T01:24:20.913Z,6.55
2023-04-28T01:26:47.297Z,6.10
2023-04-28T01:29:13.699Z,4.70
2023-04-28T01:31:41.086Z,6.95
2023-04-28T01:34:07.794Z,8.18
2023-04-28T01:36:37.201Z,4.32
2023-04-28T01:39:04.422Z,4.70
2023-04-28T01:41:30.996Z,6.28
2023-04-28T01:43:57.286Z,4.78
2023-04-28T01:46:23.646Z,5.18
2023-04-28T01:48:50.087Z,6.07
2023-04-28T01:51:16.427Z,5.57
2023-04-28T01:53:42.781Z,5.30
2023-04-28T01:56:09.248Z,6.75
2023-04-28T01:58:35.710Z,6.03
2023-04-28T02:01:02.014Z,6.25
2023-04-28T02:03:28.920Z,5.65
2023-04-28T02:05:55.622Z,8.95
2023-04-28T02:08:21.935Z,7.15
2023-04-28T02:10:48.244Z,7.10
2023-04-28T02:13:14.566Z,6.13
2023-04-28T02:15:42.530Z,7.88
2023-04-28T02:18:10.073Z,5.47
2023-04-28T02:20:36.382Z,8.93
2023-04-28T02:23:02.738Z,5.75
2023-04-28T02:25:29.049Z,6.55
2023-04-28T02:27:55.504Z,7.68
2023-04-28T02:30:21.880Z,7.15
2023-04-28T02:32:48.375Z,4.50
2023-04-28T02:35:14.927Z,5.15
2023-04-28T02:37:41.264Z,8.57
2023-04-28T02:40:08.348Z,6.85
2023-04-28T02:42:34.650Z,7.35
2023-04-28T02:45:01.076Z,5.05
2023-04-28T02:47:27.436Z,8.13
2023-04-28T02:49:53.773Z,11.10
2023-04-28T02:52:20.104Z,10.57
2023-04-28T02:54:48.835Z,7.05
2023-04-28T02:57:15.154Z,5.78
2023-04-28T02:59:41.889Z,5.63
2023-04-28T03:02:09.235Z,6.57
2023-04-28T03:04:35.728Z,6.68
2023-04-28T03:07:02.238Z,5.60
2023-04-28T03:09:28.530Z,7.72
2023-04-28T03:11:54.961Z,4.78
2023-04-28T03:14:21.274Z,6.53
2023-04-28T03:16:47.808Z,5.70
2023-04-28T03:19:14.245Z,4.68
2023-04-28T03:21:40.576Z,8.07
2023-04-28T03:24:06.965Z,5.93
2023-04-28T03:26:34.013Z,7.57
2023-04-28T03:29:00.368Z,7.50
2023-04-28T03:31:26.687Z,8.00
2023-04-28T03:33:53.062Z,6.25
2023-04-28T03:36:19.397Z,8.98
2023-04-28T03:38:45.704Z,8.48
2023-04-28T03:41:12.015Z,6.22
2023-04-28T03:43:38.344Z,11.55
2023-04-28T03:46:04.977Z,6.25
2023-04-28T03:48:31.466Z,7.28
2023-04-28T03:50:57.878Z,6.47
2023-04-28T03:53:24.292Z,7.50
2023-04-28T03:55:50.916Z,8.75
2023-04-28T03:58:17.259Z,10.88
2023-04-28T04:00:43.664Z,7.22
2023-04-28T04:03:10.177Z,7.10
2023-04-28T04:05:36.692Z,9.30
2023-04-28T04:08:03.216Z,9.52
2023-04-28T04:10:29.657Z,8.65
2023-04-28T04:12:56.010Z,6.75
2023-04-28T04:15:22.338Z,6.63
2023-04-28T04:17:48.740Z,9.68
2023-04-28T04:20:15.279Z,11.10
2023-04-28T04:22:41.806Z,10.43
2023-04-28T04:25:08.246Z,7.25
2023-04-28T04:27:34.577Z,8.88
2023-04-28T04:30:00.895Z,11.07
2023-04-28T04:32:27.570Z,11.38
2023-04-28T04:34:53.899Z,8.65
2023-04-28T04:37:20.275Z,10.27
2023-04-28T04:39:46.578Z,9.55
2023-04-28T04:42:23.973Z,9.60
2023-04-28T04:44:51.483Z,9.73
2023-04-28T04:47:17.810Z,11.15
2023-04-28T04:49:44.310Z,10.68
2023-04-28T04:52:10.669Z,9.98
2023-04-28T04:54:36.996Z,12.73
2023-04-28T04:57:03.416Z,11.43
2023-04-28T04:59:29.849Z,9.65
2023-04-28T05:01:56.648Z,9.30
2023-04-28T05:04:23.496Z,11.40
2023-04-28T05:06:50.143Z,9.50
2023-04-28T05:09:17.036Z,11.43
2023-04-28T05:11:43.405Z,10.73
2023-04-28T05:14:09.700Z,14.15
2023-04-28T05:16:36.103Z,10.15
2023-04-28T05:19:02.448Z,13.35
2023-04-28T05:21:28.779Z,15.98
2023-04-28T05:23:55.874Z,15.02
2023-04-28T05:26:22.564Z,14.70
2023-04-28T05:28:49.210Z,12.45
2023-04-28T05:31:16.373Z,10.68
2023-04-28T05:33:42.677Z,15.88
2023-04-28T05:36:09.482Z,13.82
2023-04-28T05:38:35.980Z,10.63
2023-04-28T05:41:02.512Z,17.27
2023-04-28T05:43:28.838Z,17.70
2023-04-28T05:45:55.226Z,13.10
2023-04-28T05:48:21.630Z,13.70
2023-04-28T05:50:47.975Z,20.27
2023-04-28T05:53:14.308Z,15.75
2023-04-28T05:55:41.024Z,17.75
2023-04-28T05:58:08.418Z,13.88
2023-04-28T06:00:35.433Z,14.50
2023-04-28T06:03:01.932Z,14.93
2023-04-28T06:05:28.710Z,10.40
2023-04-28T06:07:56.077Z,18.60
2023-04-28T06:10:23.564Z,18.08
2023-04-28T06:12:49.913Z,15.82
2023-04-28T06:15:16.369Z,17.83
2023-04-28T06:17:42.839Z,16.98
2023-04-28T06:20:11.055Z,18.05
2023-04-28T06:22:37.453Z,12.52
2023-04-28T06:25:04.048Z,13.85
2023-04-28T06:27:32.694Z,10.32
2023-04-28T06:29:59.493Z,15.00
2023-04-28T06:32:26.282Z,18.40
2023-04-28T06:34:52.607Z,12.73
2023-04-28T06:37:18.955Z,14.77
2023-04-28T06:39:45.242Z,14.52
2023-04-28T06:42:11.566Z,14.63
2023-04-28T06:44:37.911Z,15.13
2023-04-28T06:47:04.444Z,15.73
2023-04-28T06:49:31.248Z,15.10
2023-04-28T06:51:57.647Z,16.92
2023-04-28T06:54:24.004Z,17.13
2023-04-28T06:56:50.330Z,13.20
2023-04-28T06:59:16.748Z,15.90
2023-04-28T07:01:43.157Z,16.35
2023-04-28T07:04:09.727Z,16.67
2023-04-28T07:06:36.233Z,15.02
2023-04-28T07:09:02.971Z,19.35
2023-04-28T07:11:29.378Z,16.00
2023-04-28T07:13:55.778Z,16.02
2023-04-28T07:16:22.287Z,14.57
2023-04-28T07:18:48.682Z,12.45
2023-04-28T07:21:15.008Z,17.73
2023-04-28T07:23:41.771Z,17.15
2023-04-28T07:26:08.281Z,16.00
2023-04-28T07:28:34.965Z,12.90
2023-04-28T07:31:01.348Z,15.52
2023-04-28T07:33:28.020Z,15.48
2023-04-28T07:35:54.377Z,15.20
2023-04-28T07:38:20.914Z,15.85
2023-04-28T07:40:47.420Z,15.88
2023-04-28T07:43:13.929Z,16.33
2023-04-28T07:45:40.793Z,18.15
2023-04-28T07:48:07.601Z,15.77
2023-04-28T07:50:34.472Z,15.02
2023-04-28T07:53:00.884Z,15.68
2023-04-28T07:55:27.218Z,16.33
2023-04-28T07:57:54.521Z,15.60
2023-04-28T08:00:21.299Z,15.68
2023-04-28T08:02:47.825Z,15.45
2023-04-28T08:05:14.736Z,18.63
2023-04-28T08:07:41.304Z,22.77
2023-04-28T08:10:10.429Z,15.80
2023-04-28T08:12:36.846Z,17.88
2023-04-28T08:15:03.863Z,19.05
2023-04-28T08:17:30.229Z,15.95
2023-04-28T08:19:56.573Z,14.25
2023-04-28T08:22:22.875Z,16.38
2023-04-28T08:24:49.259Z,14.80
2023-04-28T08:27:15.765Z,12.48
2023-04-28T08:29:42.330Z,14.77
2023-04-28T08:32:09.050Z,16.50
2023-04-28T08:34:35.617Z,17.33
2023-04-28T08:37:02.052Z,12.77
2023-04-28T08:39:28.946Z,14.25
2023-04-28T08:41:56.712Z,13.50
2023-04-28T08:44:23.679Z,13.82
2023-04-28T08:46:54.288Z,15.07
2023-04-28T08:49:28.104Z,11.73
2023-04-28T08:51:59.114Z,12.27
2023-04-28T08:54:36.249Z,11.73
2023-04-28T08:57:04.227Z,10.70
2023-04-28T08:59:31.307Z,14.85
2023-04-28T09:01:58.445Z,14.68
2023-04-28T09:04:25.330Z,13.63
2023-04-28T09:06:54.423Z,13.70
2023-04-28T09:09:27.877Z,11.32
2023-04-28T09:11:58.494Z,11.85
2023-04-28T09:14:26.236Z,13.80
2023-04-28T09:16:52.853Z,11.98
2023-04-28T09:19:19.645Z,10.23
2023-04-28T09:21:54.632Z,12.73
2023-04-28T09:24:35.065Z,12.25
2023-04-28T09:27:05.138Z,10.90
2023-04-28T09:29:32.054Z,11.07
2023-04-28T09:32:15.898Z,10.65
2023-04-28T09:34:45.534Z,9.98
2023-04-28T09:37:22.458Z,11.68
2023-04-28T09:39:53.981Z,11.13
2023-04-28T09:42:46.885Z,13.43
2023-04-28T09:45:15.213Z,15.18
2023-04-28T09:47:43.347Z,13.05
2023-04-28T09:50:14.312Z,10.82
2023-04-28T09:52:48.747Z,10.30
2023-04-28T09:55:15.327Z,9.88
2023-04-28T09:57:44.490Z,10.25
2023-04-28T10:00:11.142Z,12.45
2023-04-28T10:05:09.994Z,11.82
2023-04-28T10:07:37.473Z,10.65
2023-04-28T10:10:04.357Z,12.85
2023-04-28T10:12:32.745Z,11.55
2023-04-28T10:15:00.059Z,13.43
2023-04-28T10:17:27.207Z,12.82
2023-04-28T10:19:54.389Z,12.75
2023-04-28T10:22:45.995Z,13.27
2023-04-28T10:25:12.303Z,11.77
2023-04-28T10:27:41.520Z,11.65
2023-04-28T10:30:22.788Z,12.82
2023-04-28T10:33:14.348Z,11.23
2023-04-28T10:35:46.007Z,12.40
2023-04-28T10:38:17.042Z,13.68
2023-04-28T10:40:50.644Z,14.38
2023-04-28T10:43:26.899Z,13.50
2023-04-28T10:45:57.938Z,14.35
2023-04-28T10:48:30.817Z,14.18
2023-04-28T10:51:02.920Z,15.50
2023-04-28T10:53:44.750Z,12.60
2023-04-28T10:56:18.656Z,18.35
2023-04-28T10:58:57.708Z,18.10
2023-04-28T11:01:25.386Z,13.30
2023-04-28T11:04:04.001Z,16.38
2023-04-28T11:06:40.081Z,12.88
2023-04-28T11:09:12.596Z,14.50
2023-04-28T11:11:40.013Z,15.38
2023-04-28T11:14:18.427Z,13.35
2023-04-28T11:16:59.525Z,17.42
2023-04-28T11:19:28.593Z,15.25
2023-04-28T11:21:57.194Z,14.02
2023-04-28T11:24:28.775Z,12.93
2023-04-28T11:26:58.904Z,10.40
2023-04-28T11:29:34.954Z,17.45
2023-04-28T11:32:03.001Z,10.88
2023-04-28T11:34:29.617Z,10.75
2023-04-28T11:36:56.135Z,9.75
2023-04-28T11:39:30.842Z,9.45
2023-04-28T11:41:58.421Z,9.60
2023-04-28T11:44:27.399Z,9.50
2023-04-28T11:46:57.198Z,9.40
2023-04-28T11:49:24.738Z,12.00
2023-04-28T11:51:52.001Z,11.35
2023-04-28T11:54:26.445Z,11.10
2023-04-28T11:56:55.602Z,12.95
2023-04-28T11:59:27.622Z,12.43
2023-04-28T12:02:02.814Z,8.82
2023-04-28T12:04:30.374Z,10.77
2023-04-28T12:07:03.076Z,10.77
2023-04-28T12:09:29.662Z,13.80
2023-04-28T12:12:02.183Z,11.25
2023-04-28T12:14:30.051Z,13.82
2023-04-28T12:16:56.927Z,12.65
2023-04-28T12:19:23.279Z,12.00
2023-04-28T12:22:03.410Z,11.43
2023-04-28T12:24:31.001Z,10.52
2023-04-28T12:27:18.392Z,9.00
2023-04-28T12:29:46.574Z,11.77
2023-04-28T12:32:13.759Z,14.93
2023-04-28T12:34:41.802Z,11.30
2023-04-28T12:37:08.225Z,13.27
2023-04-28T12:39:40.362Z,12.95
2023-04-28T12:42:07.114Z,16.58
2023-04-28T12:44:35.471Z,15.13
2023-04-28T12:47:10.940Z,13.05
2023-04-28T12:49:38.235Z,13.85
2023-04-28T12:52:05.664Z,14.82
2023-04-28T12:54:31.987Z,15.40
2023-04-28T12:56:58.300Z,17.23
2023-04-28T12:59:24.816Z,14.20
2023-04-28T13:01:51.364Z,15.77
2023-04-28T13:04:18.875Z,16.67
2023-04-28T13:06:45.550Z,13.25
2023-04-28T13:09:12.498Z,14.65
2023-04-28T13:11:39.376Z,14.75
2023-04-28T13:14:06.148Z,14.65
2023-04-28T13:16:32.662Z,12.68
2023-04-28T13:18:59.072Z,13.55
2023-04-28T13:21:26.689Z,12.88
2023-04-28T13:23:54.082Z,16.98
2023-04-28T13:26:20.868Z,14.23
2023-04-28T13:28:47.685Z,16.25
2023-04-28T13:31:14.869Z,11.07
2023-04-28T13:33:41.214Z,14.32
2023-04-28T13:36:08.905Z,13.07
2023-04-28T13:38:35.864Z,8.77
2023-04-28T13:41:03.156Z,5.22
2023-04-28T13:43:30.949Z,4.68
2023-04-28T13:45:57.841Z,7.38
2023-04-28T13:48:24.325Z,4.93
2023-04-28T13:50:50.700Z,4.68
2023-04-28T13:53:17.240Z,4.38
2023-04-28T13:55:43.761Z,4.50
2023-04-28T13:58:10.102Z,3.75
2023-04-28T14:00:37.621Z,4.45
2023-04-28T14:03:04.347Z,6.15
2023-04-28T14:05:36.093Z,6.20
2023-04-28T14:08:10.039Z,6.43
2023-04-28T14:10:36.524Z,5.78
2023-04-28T14:13:03.041Z,7.72
2023-04-28T14:15:30.632Z,5.43
2023-04-28T14:17:57.360Z,6.13
2023-04-28T14:20:23.764Z,5.13
2023-04-28T14:22:50.429Z,6.60
2023-04-28T14:25:18.490Z,8.05
2023-04-28T14:27:45.097Z,5.47
2023-04-28T14:30:11.594Z,6.22
2023-04-28T14:32:39.969Z,5.47
2023-04-28T14:35:06.715Z,6.25
2023-04-28T14:37:33.259Z,6.00
2023-04-28T14:40:00.853Z,5.38
2023-04-28T14:42:32.218Z,7.60
2023-04-28T14:45:02.889Z,6.80
2023-04-28T14:47:30.385Z,5.55
2023-04-28T14:49:57.939Z,7.57
2023-04-28T14:52:28.991Z,6.55
2023-04-28T14:54:56.647Z,4.95
2023-04-28T14:57:23.978Z,4.75
2023-04-28T14:59:52.070Z,3.40
2023-04-28T15:02:20.463Z,3.40
2023-04-28T15:04:48.167Z,1.73
2023-04-28T15:07:14.917Z,3.13
2023-04-28T15:09:41.509Z,4.80
2023-04-28T15:12:07.894Z,2.95
2023-04-28T15:14:34.325Z,3.03
2023-04-28T15:17:00.663Z,3.22
2023-04-28T15:19:26.963Z,2.92
2023-04-28T15:21:53.470Z,4.97
2023-04-28T15:24:23.483Z,4.55
2023-04-28T15:26:49.879Z,5.10
2023-04-28T15:29:16.833Z,2.42
2023-04-28T15:31:43.263Z,4.00
2023-04-28T15:34:09.865Z,4.75
2023-04-28T15:36:39.857Z,5.63
2023-04-28T15:39:07.342Z,6.35
2023-04-28T15:41:34.700Z,7.32
2023-04-28T15:44:01.616Z,6.50
2023-04-28T15:46:28.962Z,5.95
2023-04-28T15:48:56.042Z,5.90
2023-04-28T15:51:23.281Z,4.97
2023-04-28T15:53:50.735Z,8.18
2023-04-28T15:56:19.534Z,6.32
2023-04-28T15:58:47.639Z,4.03
2023-04-28T16:01:14.186Z,3.83
2023-04-28T16:03:41.027Z,5.38
2023-04-28T16:06:08.111Z,3.08
2023-04-28T16:08:35.527Z,4.68
2023-04-28T16:11:03.657Z,4.18
2023-04-28T16:13:36.747Z,3.33
2023-04-28T16:16:04.064Z,5.18
2023-04-28T16:18:30.746Z,4.93
2023-04-28T16:20:57.045Z,4.93
2023-04-28T16:23:23.314Z,9.02
2023-04-28T16:25:50.707Z,9.25
2023-04-28T16:28:17.408Z,9.70
2023-04-28T16:30:43.769Z,12.50
2023-04-28T16:33:10.169Z,11.55
2023-04-28T16:35:36.765Z,6.53
2023-04-28T16:38:03.342Z,9.38
2023-04-28T16:40:29.728Z,7.60
2023-04-28T16:42:56.377Z,7.80
2023-04-28T16:45:23.558Z,8.23
2023-04-28T16:47:49.967Z,7.63
2023-04-28T16:50:17.184Z,4.95
2023-04-28T16:52:43.541Z,9.98
2023-04-28T16:55:10.674Z,10.98
2023-04-28T16:57:37.367Z,8.70
2023-04-28T17:00:05.022Z,9.77
2023-04-28T17:02:32.564Z,10.13
2023-04-28T17:04:58.955Z,9.57
2023-04-28T17:07:25.745Z,12.32
2023-04-28T17:09:52.644Z,8.20
2023-04-28T17:12:20.894Z,12.38
2023-04-28T17:14:47.577Z,14.02
2023-04-28T17:17:14.053Z,11.35
2023-04-28T17:19:41.987Z,11.20
2023-04-28T17:22:08.386Z,13.05
2023-04-28T17:24:34.902Z,15.40
2023-04-28T17:27:01.424Z,15.52
2023-04-28T17:29:27.743Z,17.02
2023-04-28T17:31:54.445Z,10.45
2023-04-28T17:34:21.022Z,12.40
2023-04-28T17:36:47.811Z,14.80
2023-04-28T17:39:16.159Z,9.00
2023-04-28T17:41:43.392Z,9.43
2023-04-28T17:44:09.961Z,9.73
2023-04-28T17:46:38.411Z,11.85
2023-04-28T17:49:05.257Z,4.68
2023-04-28T17:51:32.213Z,11.50
2023-04-28T17:53:59.019Z,11.38
2023-04-28T17:56:25.617Z,13.65
2023-04-28T17:58:52.359Z,10.07
2023-04-28T18:01:18.749Z,13.23
2023-04-28T18:03:45.225Z,10.48
2023-04-28T18:06:12.039Z,11.52
2023-04-28T18:08:38.813Z,9.48
2023-04-28T18:11:06.903Z,9.52
2023-04-28T18:13:33.331Z,9.13
2023-04-28T18:16:00.387Z,11.32
2023-04-28T18:18:29.851Z,4.53
2023-04-28T18:20:58.942Z,8.15
2023-04-28T18:23:26.414Z,10.98
2023-04-28T18:25:52.774Z,8.20
2023-04-28T18:28:19.086Z,10.93
2023-04-28T18:30:45.351Z,5.80
2023-04-28T18:33:11.737Z,5.40
2023-04-28T18:35:38.136Z,5.80
2023-04-28T18:38:05.196Z,8.82
2023-04-28T18:40:33.407Z,6.35
2023-04-28T18:43:01.990Z,7.60
2023-04-28T18:45:30.932Z,7.05
2023-04-28T18:47:58.482Z,5.30
2023-04-28T18:50:25.268Z,2.75
2023-04-28T18:52:51.933Z,4.60
2023-04-28T18:55:18.320Z,7.03
2023-04-28T18:57:44.716Z,6.07
2023-04-28T19:00:11.556Z,6.20
2023-04-28T19:02:38.015Z,5.43
2023-04-28T19:05:05.593Z,6.38
2023-04-28T19:07:32.782Z,6.05
2023-04-28T19:09:59.334Z,6.53
2023-04-28T19:12:25.897Z,7.97
2023-04-28T19:14:52.478Z,7.28
2023-04-28T19:17:18.808Z,8.57
2023-04-28T19:19:45.315Z,6.03
2023-04-28T19:22:37.589Z,3.67
2023-04-28T19:25:05.310Z,5.15
2023-04-28T19:27:33.479Z,5.55
2023-04-28T19:30:01.126Z,4.65
2023-04-28T19:32:28.251Z,4.43
2023-04-28T19:34:54.953Z,5.55
2023-04-28T19:37:21.960Z,6.65
2023-04-28T19:39:50.397Z,7.70
2023-04-28T19:42:18.342Z,7.85
2023-04-28T19:44:46.488Z,5.85
2023-04-28T19:47:13.157Z,6.22
2023-04-28T19:49:41.285Z,6.40
2023-04-28T19:52:09.923Z,4.20
2023-04-28T19:54:38.755Z,2.78
2023-04-28T19:57:05.384Z,2.65
2023-04-28T19:59:43.442Z,3.40
2023-04-28T20:02:10.079Z,4.05
2023-04-28T20:04:37.580Z,3.80
2023-04-28T20:07:04.688Z,3.97
2023-04-28T20:09:33.610Z,4.65
2023-04-28T20:12:00.243Z,4.35
2023-04-28T20:14:27.623Z,6.00
2023-04-28T20:16:53.920Z,7.93
2023-04-28T20:19:20.235Z,10.70
2023-04-28T20:21:46.695Z,7.18
2023-04-28T20:24:13.031Z,13.05
2023-04-28T20:26:39.400Z,14.00
2023-04-28T20:29:07.887Z,16.85
2023-04-28T20:31:35.070Z,15.85
2023-04-28T20:34:02.929Z,15.75
2023-04-28T20:36:30.311Z,23.77
2023-04-28T20:38:56.644Z,23.70
2023-04-28T20:41:23.642Z,23.33
2023-04-28T20:43:52.272Z,27.17
2023-04-28T20:46:18.905Z,27.80
2023-04-28T20:48:45.229Z,19.40
2023-04-28T20:51:11.744Z,27.48
2023-04-28T20:53:39.509Z,26.70
2023-04-28T20:56:06.434Z,23.15
2023-04-28T20:58:32.764Z,25.40
2023-04-28T21:00:59.220Z,21.17
2023-04-28T21:03:25.709Z,26.75
2023-04-28T21:05:52.147Z,22.45
2023-04-28T21:08:18.447Z,21.02
2023-04-28T21:10:44.911Z,24.75
2023-04-28T21:13:11.954Z,28.55
2023-04-28T21:15:41.496Z,22.20
2023-04-28T21:18:08.025Z,23.55
2023-04-28T21:20:34.462Z,25.27
2023-04-28T21:23:00.854Z,25.98
2023-04-28T21:25:27.260Z,28.17
2023-04-28T21:27:53.654Z,24.98
2023-04-28T21:30:20.612Z,30.55
2023-04-28T21:32:47.033Z,28.52
2023-04-28T21:35:13.549Z,21.20
2023-04-28T21:37:39.935Z,24.27
2023-04-28T21:40:08.803Z,32.60
2023-04-28T21:42:35.339Z,21.98
2023-04-28T21:45:01.777Z,25.27
2023-04-28T21:47:28.321Z,34.45
2023-04-28T21:49:54.695Z,29.45
2023-04-28T21:52:20.990Z,24.13
2023-04-28T21:54:47.349Z,28.88
2023-04-28T21:57:15.603Z,29.85
2023-04-28T21:59:42.102Z,32.13
2023-04-28T22:02:08.733Z,36.10
2023-04-28T22:04:35.670Z,39.17
2023-04-28T22:07:02.163Z,29.83
2023-04-28T22:09:28.827Z,29.95
2023-04-28T22:11:55.189Z,40.42
2023-04-28T22:14:38.649Z,32.55
2023-04-28T22:17:07.112Z,29.70
2023-04-28T22:19:33.615Z,34.67
2023-04-28T22:21:59.928Z,36.25
2023-04-28T22:24:27.537Z,33.58
2023-04-28T22:26:54.662Z,36.72
2023-04-28T22:29:21.375Z,37.33
2023-04-28T22:31:47.665Z,38.25
2023-04-28T22:34:14.071Z,39.85
2023-04-28T22:36:40.379Z,39.42
2023-04-28T22:39:06.796Z,32.30
2023-04-28T22:41:33.147Z,47.20
2023-04-28T22:43:59.499Z,47.28
2023-04-28T22:46:26.177Z,53.03
2023-04-28T22:48:52.613Z,54.72
2023-04-28T22:51:18.946Z,57.67
2023-04-28T22:53:46.429Z,62.38
2023-04-28T22:56:12.817Z,61.97
2023-04-28T22:58:39.136Z,61.15
2023-04-28T23:01:05.637Z,66.00
2023-04-28T23:03:33.519Z,67.22
2023-04-28T23:05:59.971Z,66.55
2023-04-28T23:08:26.255Z,43.63
2023-04-28T23:10:56.202Z,46.67
2023-04-28T23:13:22.577Z,52.67
2023-04-28T23:15:48.930Z,50.70
2023-04-28T23:18:15.284Z,53.10
2023-04-28T23:20:43.967Z,47.28
2023-04-28T23:23:10.297Z,29.65
2023-04-28T23:25:37.149Z,36.97
2023-04-28T23:28:03.528Z,40.45
2023-04-28T23:30:29.834Z,27.48
2023-04-28T23:32:56.425Z,34.97
2023-04-28T23:35:22.893Z,35.90
2023-04-28T23:37:49.230Z,33.20
2023-04-28T23:40:15.670Z,34.08
2023-04-28T23:42:41.999Z,35.92
2023-04-28T23:45:09.744Z,29.80
2023-04-28T23:47:36.289Z,33.42
2023-04-28T23:50:03.393Z,33.70
2023-04-28T23:52:29.764Z,34.67
2023-04-28T23:54:56.107Z,35.38
2023-04-28T23:57:22.793Z,35.00
2023-04-28T23:59:49.166Z,33.67
